Time;durP1;ratioP1;P1;durP2;ratioP2;P2;SDS_P1;SDS_P2;PMS_P1;PMS_P2;Temp;Humidity;BMP_temperature;BMP_pressure;BME280_temperature;BME280_humidity;BME280_pressure;Samples;Min_cycle;Max_cycle;Signal;HPM_P1;HPM_P2
2024/01/19 00:01:20;;;;;;;;;;;;;;;;;;5080775;28;20006;-69
2024/01/19 00:03:46;;;;;;;;;;;;;;;;;;5082203;28;19924;-69
2024/01/19 00:06:12;;;;;;;;;;;;;;;;;;5080589;28;19950;-70
2024/01/19 00:08:39;;;;;;;;;;;;;;;;;;5080803;28;20152;-70
2024/01/19 00:11:05;;;;;;;;;;;;;;;;;;5083635;28;19924;-69
2024/01/19 00:13:32;;;;;;;;;;;;;;;;;;5086805;28;19925;-71
2024/01/19 00:15:58;;;;;;;;;;;;;;;;;;5081064;28;19928;-71
2024/01/19 00:18:26;;;;;;;;;;;;;;;;;;5082564;28;19968;-68
2024/01/19 00:20:53;;;;;;;;;;;;;;;;;;5083089;28;19928;-69
2024/01/19 00:23:19;;;;;;;;;;;;;;;;;;5082391;28;20424;-70
2024/01/19 00:25:45;;;;;;;;;;;;;;;;;;5086567;28;19969;-69
2024/01/19 00:28:12;;;;;;;;;;;;;;;;;;5082995;28;19963;-69
2024/01/19 00:30:38;;;;;;;;;;;;;;;;;;5086060;28;19928;-70
2024/01/19 00:33:05;;;;;;;;;;;;;;;;;;5082292;28;19932;-70
2024/01/19 00:35:31;;;;;;;;;;;;;;;;;;5075258;28;20019;-70
2024/01/19 00:37:57;;;;;;;;;;;;;;;;;;5077248;28;20394;-69
2024/01/19 00:40:24;;;;;;;;;;;;;;;;;;5071809;28;19928;-69
2024/01/19 00:42:50;;;;;;;;;;;;;;;;;;5079720;28;19924;-69
2024/01/19 00:45:16;;;;;;;;;;;;;;;;;;5073995;28;19950;-70
2024/01/19 00:47:43;;;;;;;;;;;;;;;;;;5076871;28;19928;-69
2024/01/19 00:50:09;;;;;;;;;;;;;;;;;;5073938;28;19956;-71
2024/01/19 00:52:36;;;;;;;;;;;;;;;;;;5074998;28;19928;-69
2024/01/19 00:55:03;;;;;;;;;;;;;;;;;;5079051;28;20292;-70
2024/01/19 00:57:29;;;;;;;;;;;;;;;;;;5077452;28;20022;-69
2024/01/19 00:59:55;;;;;;;;;;;;;;;;;;5077092;28;19924;-70
2024/01/19 01:02:22;;;;;;;;;;;;;;;;;;5076452;28;19924;-69
2024/01/19 01:04:48;;;;;;;;;;;;;;;;;;5076848;28;19928;-69
2024/01/19 01:07:15;;;;;;;;;;;;;;;;;;5072468;28;19928;-69
2024/01/19 01:09:41;;;;;;;;;;;;;;;;;;5081436;28;19970;-70
2024/01/19 01:12:07;;;;;;;;;;;;;;;;;;5075174;28;19923;-69
2024/01/19 01:14:34;;;;;;;;;;;;;;;;;;5080053;28;19928;-69
2024/01/19 01:17:00;;;;;;;;;;;;;;;;;;5073369;28;20332;-70
2024/01/19 01:19:26;;;;;;;;;;;;;;;;;;5077917;28;19924;-69
2024/01/19 01:21:53;;;;;;;;;;;;;;;;;;5074121;28;19967;-69
2024/01/19 01:24:22;;;;;;;;;;;;;;;;;;5077252;28;19939;-69
2024/01/19 01:26:48;;;;;;;;;;;;;;;;;;5076292;28;19931;-69
2024/01/19 01:29:14;;;;;;;;;;;;;;;;;;5074950;28;20282;-70
2024/01/19 01:31:41;;;;;;;;;;;;;;;;;;5080195;28;19925;-72
2024/01/19 01:34:07;;;;;;;;;;;;;;;;;;5079563;28;19928;-69
2024/01/19 01:36:34;;;;;;;;;;;;;;;;;;5079453;28;19924;-69
2024/01/19 01:39:00;;;;;;;;;;;;;;;;;;5076314;28;19961;-70
2024/01/19 01:41:26;;;;;;;;;;;;;;;;;;5078774;28;20019;-70
2024/01/19 01:43:53;;;;;;;;;;;;;;;;;;5074491;28;20023;-70
2024/01/19 01:46:19;;;;;;;;;;;;;;;;;;5076844;28;20051;-69
2024/01/19 01:48:45;;;;;;;;;;;;;;;;;;5077351;28;19924;-70
2024/01/19 01:51:12;;;;;;;;;;;;;;;;;;5080015;28;19946;-69
2024/01/19 01:53:38;;;;;;;;;;;;;;;;;;5074263;28;20026;-68
2024/01/19 01:56:05;;;;;;;;;;;;;;;;;;5079234;28;19924;-68
2024/01/19 01:58:31;;;;;;;;;;;;;;;;;;5080922;28;20368;-71
2024/01/19 02:00:57;;;;;;;;;;;;;;;;;;5063191;28;19930;-69
2024/01/19 02:03:24;;;;;;;;;;;;;;;;;;5078129;28;20384;-69
2024/01/19 02:05:50;;;;;;;;;;;;;;;;;;5079873;28;19928;-71
2024/01/19 02:08:17;;;;;;;;;;;;;;;;;;5079696;28;19925;-69
2024/01/19 02:10:43;;;;;;;;;;;;;;;;;;5082571;28;19928;-69
2024/01/19 02:13:10;;;;;;;;;;;;;;;;;;5083267;28;19931;-69
2024/01/19 02:15:37;;;;;;;;;;;;;;;;;;5081204;28;19950;-70
2024/01/19 02:18:04;;;;;;;;;;;;;;;;;;5082898;28;19935;-71
2024/01/19 02:20:31;;;;;;;;;;;;;;;;;;5082787;28;20352;-69
2024/01/19 02:22:57;;;;;;;;;;;;;;;;;;5073341;28;20362;-71
2024/01/19 02:25:24;;;;;;;;;;;;;;;;;;5077073;28;20364;-70
2024/01/19 02:27:50;;;;;;;;;;;;;;;;;;5078674;28;19935;-70
2024/01/19 02:30:17;;;;;;;;;;;;;;;;;;5072095;28;19924;-70
2024/01/19 02:32:43;;;;;;;;;;;;;;;;;;5080339;28;19928;-68
2024/01/19 02:35:09;;;;;;;;;;;;;;;;;;5070321;28;20384;-68
2024/01/19 02:37:36;;;;;;;;;;;;;;;;;;5076485;28;20046;-70
2024/01/19 02:40:04;;;;;;;;;;;;;;;;;;5075210;28;20416;-70
2024/01/19 02:42:31;;;;;;;;;;;;;;;;;;5078868;28;19935;-70
2024/01/19 02:45:01;;;;;;;;;;;;;;;;;;5075036;28;20019;-69
2024/01/19 02:47:27;;;;;;;;;;;;;;;;;;5074878;28;19924;-70
2024/01/19 02:49:54;;;;;;;;;;;;;;;;;;5073742;28;19963;-70
2024/01/19 02:52:21;;;;;;;;;;;;;;;;;;5072972;28;19925;-71
2024/01/19 02:54:47;;;;;;;;;;;;;;;;;;5071882;28;19924;-69
2024/01/19 02:57:13;;;;;;;;;;;;;;;;;;5077401;28;20309;-71
2024/01/19 02:59:40;;;;;;;;;;;;;;;;;;5077124;28;20307;-69
2024/01/19 03:02:06;;;;;;;;;;;;;;;;;;5073346;28;20266;-68
2024/01/19 03:04:33;;;;;;;;;;;;;;;;;;5073443;28;19935;-70
2024/01/19 03:06:59;;;;;;;;;;;;;;;;;;5072166;28;19928;-69
2024/01/19 03:09:26;;;;;;;;;;;;;;;;;;5078332;28;19932;-70
2024/01/19 03:11:52;;;;;;;;;;;;;;;;;;5073277;28;19924;-70
2024/01/19 03:14:19;;;;;;;;;;;;;;;;;;5076484;28;19946;-69
2024/01/19 03:16:45;;;;;;;;;;;;;;;;;;5071877;28;20385;-69
2024/01/19 03:19:12;;;;;;;;;;;;;;;;;;5079338;28;19978;-69
2024/01/19 03:21:38;;;;;;;;;;;;;;;;;;5075251;28;20345;-69
2024/01/19 03:24:05;;;;;;;;;;;;;;;;;;5076015;28;19935;-72
2024/01/19 03:26:31;;;;;;;;;;;;;;;;;;5075907;28;19932;-69
2024/01/19 03:28:57;;;;;;;;;;;;;;;;;;5078119;28;20331;-70
2024/01/19 03:31:25;;;;;;;;;;;;;;;;;;5075960;28;20380;-69
2024/01/19 03:33:51;;;;;;;;;;;;;;;;;;5077398;28;19928;-69
2024/01/19 03:36:20;;;;;;;;;;;;;;;;;;5081780;28;20031;-70
2024/01/19 03:38:46;;;;;;;;;;;;;;;;;;5079972;28;19947;-70
2024/01/19 03:41:13;;;;;;;;;;;;;;;;;;5080766;28;19925;-70
2024/01/19 03:43:41;;;;;;;;;;;;;;;;;;5082915;28;20276;-70
2024/01/19 03:46:08;;;;;;;;;;;;;;;;;;5078783;28;20399;-71
2024/01/19 03:48:34;;;;;;;;;;;;;;;;;;5082847;28;19929;-71
2024/01/19 03:51:00;;;;;;;;;;;;;;;;;;5082380;28;19932;-72
2024/01/19 03:53:27;;;;;;;;;;;;;;;;;;5082103;28;20019;-69
2024/01/19 03:55:53;;;;;;;;;;;;;;;;;;5083545;28;19966;-70
2024/01/19 03:58:19;;;;;;;;;;;;;;;;;;5083829;28;19929;-69
2024/01/19 04:00:46;;;;;;;;;;;;;;;;;;5082986;28;20300;-69
2024/01/19 04:03:12;;;;;;;;;;;;;;;;;;5086517;28;20337;-69
2024/01/19 04:05:39;;;;;;;;;;;;;;;;;;5086185;28;19931;-71
2024/01/19 04:08:05;;;;;;;;;;;;;;;;;;5080110;28;19924;-69
2024/01/19 04:10:31;;;;;;;;;;;;;;;;;;5080389;28;19943;-71
2024/01/19 04:12:58;;;;;;;;;;;;;;;;;;5080957;28;19928;-70
2024/01/19 04:15:24;;;;;;;;;;;;;;;;;;5072666;28;19925;-69
2024/01/19 04:17:50;;;;;;;;;;;;;;;;;;5063070;28;19929;-69
2024/01/19 04:20:17;;;;;;;;;;;;;;;;;;5074516;28;19925;-68
2024/01/19 04:22:43;;;;;;;;;;;;;;;;;;5082683;28;19971;-70
2024/01/19 04:25:10;;;;;;;;;;;;;;;;;;5078420;28;19935;-70
2024/01/19 04:27:36;;;;;;;;;;;;;;;;;;5081012;28;19931;-69
2024/01/19 04:30:03;;;;;;;;;;;;;;;;;;5075146;28;20019;-69
2024/01/19 04:32:29;;;;;;;;;;;;;;;;;;5079672;28;19925;-70
2024/01/19 04:34:55;;;;;;;;;;;;;;;;;;5070291;28;19928;-70
2024/01/19 04:37:22;;;;;;;;;;;;;;;;;;5079872;28;19935;-71
2024/01/19 04:39:48;;;;;;;;;;;;;;;;;;5070042;28;19939;-70
2024/01/19 04:42:14;;;;;;;;;;;;;;;;;;5078025;28;20030;-70
2024/01/19 04:44:41;;;;;;;;;;;;;;;;;;5075495;28;19947;-69
2024/01/19 04:47:10;;;;;;;;;;;;;;;;;;5072597;28;19925;-70
2024/01/19 04:49:36;;;;;;;;;;;;;;;;;;5075234;28;19928;-71
2024/01/19 04:52:03;;;;;;;;;;;;;;;;;;5075838;28;19928;-69
2024/01/19 04:54:29;;;;;;;;;;;;;;;;;;5080505;28;20023;-71
2024/01/19 04:56:55;;;;;;;;;;;;;;;;;;5076428;28;19932;-71
2024/01/19 04:59:22;;;;;;;;;;;;;;;;;;5078075;28;19924;-70
2024/01/19 05:01:48;;;;;;;;;;;;;;;;;;5074021;28;19940;-70
2024/01/19 05:04:14;;;;;;;;;;;;;;;;;;5082866;28;19925;-72
2024/01/19 05:06:42;;;;;;;;;;;;;;;;;;5077487;28;19928;-70
2024/01/19 05:09:08;;;;;;;;;;;;;;;;;;5076868;28;19924;-70
2024/01/19 05:11:34;;;;;;;;;;;;;;;;;;5075694;28;19928;-70
2024/01/19 05:14:03;;;;;;;;;;;;;;;;;;5082469;28;20376;-72
2024/01/19 05:16:29;;;;;;;;;;;;;;;;;;5078298;28;20277;-69
2024/01/19 05:18:55;;;;;;;;;;;;;;;;;;5075336;28;20458;-70
2024/01/19 05:21:22;;;;;;;;;;;;;;;;;;5079756;28;19928;-69
2024/01/19 05:23:48;;;;;;;;;;;;;;;;;;5078636;28;19951;-70
2024/01/19 05:26:14;;;;;;;;;;;;;;;;;;5079572;28;20011;-71
2024/01/19 05:28:41;;;;;;;;;;;;;;;;;;5077920;28;19947;-69
2024/01/19 05:31:07;;;;;;;;;;;;;;;;;;5078891;28;19964;-69
2024/01/19 05:33:37;;;;;;;;;;;;;;;;;;5079680;28;19925;-68
2024/01/19 05:36:05;;;;;;;;;;;;;;;;;;5078583;28;19967;-69
2024/01/19 05:38:31;;;;;;;;;;;;;;;;;;5079766;28;19925;-70
2024/01/19 05:40:58;;;;;;;;;;;;;;;;;;5083828;28;20675;-69
2024/01/19 05:43:24;;;;;;;;;;;;;;;;;;5080649;28;19929;-69
2024/01/19 05:45:50;;;;;;;;;;;;;;;;;;5087176;28;20284;-70
2024/01/19 05:48:17;;;;;;;;;;;;;;;;;;5081683;28;19925;-69
2024/01/19 05:50:43;;;;;;;;;;;;;;;;;;5080160;28;19963;-71
2024/01/19 05:53:10;;;;;;;;;;;;;;;;;;5079993;28;19934;-71
2024/01/19 05:55:36;;;;;;;;;;;;;;;;;;5084230;28;19931;-71
2024/01/19 05:58:04;;;;;;;;;;;;;;;;;;5087460;28;19925;-70
2024/01/19 06:00:31;;;;;;;;;;;;;;;;;;5078845;28;19928;-69
2024/01/19 06:02:57;;;;;;;;;;;;;;;;;;5074734;28;20396;-71
2024/01/19 06:05:24;;;;;;;;;;;;;;;;;;5074931;28;19974;-70
2024/01/19 06:07:50;;;;;;;;;;;;;;;;;;5075239;28;19932;-70
2024/01/19 06:10:16;;;;;;;;;;;;;;;;;;5077193;28;20400;-69
2024/01/19 06:12:43;;;;;;;;;;;;;;;;;;5077660;28;19925;-71
2024/01/19 06:15:09;;;;;;;;;;;;;;;;;;5075718;28;19946;-70
2024/01/19 06:17:35;;;;;;;;;;;;;;;;;;5074827;28;19931;-72
2024/01/19 06:20:02;;;;;;;;;;;;;;;;;;5065406;28;19933;-69
2024/01/19 06:22:29;;;;;;;;;;;;;;;;;;5078384;28;20385;-70
2024/01/19 06:24:55;;;;;;;;;;;;;;;;;;5070176;28;19925;-70
2024/01/19 06:27:21;;;;;;;;;;;;;;;;;;5082682;28;19932;-69
2024/01/19 06:29:48;;;;;;;;;;;;;;;;;;5071559;28;20015;-69
2024/01/19 06:32:14;;;;;;;;;;;;;;;;;;5079273;28;19924;-69
2024/01/19 06:34:41;;;;;;;;;;;;;;;;;;5071858;28;20318;-69
2024/01/19 06:37:08;;;;;;;;;;;;;;;;;;5078976;28;19979;-70
2024/01/19 06:39:35;;;;;;;;;;;;;;;;;;5071582;28;19925;-69
2024/01/19 06:42:01;;;;;;;;;;;;;;;;;;5071799;28;19939;-69
2024/01/19 06:44:27;;;;;;;;;;;;;;;;;;5080649;28;19935;-69
2024/01/19 06:46:54;;;;;;;;;;;;;;;;;;5073039;28;19974;-71
2024/01/19 06:49:20;;;;;;;;;;;;;;;;;;5074347;28;19929;-69
2024/01/19 06:51:47;;;;;;;;;;;;;;;;;;5077942;28;19929;-70
2024/01/19 06:54:13;;;;;;;;;;;;;;;;;;5077515;28;20463;-70
2024/01/19 06:56:40;;;;;;;;;;;;;;;;;;5073068;28;20393;-68
2024/01/19 06:59:06;;;;;;;;;;;;;;;;;;5077588;28;20263;-69
2024/01/19 07:01:34;;;;;;;;;;;;;;;;;;5075707;28;19924;-71
2024/01/19 07:04:02;;;;;;;;;;;;;;;;;;5077186;28;20407;-70
2024/01/19 07:06:28;;;;;;;;;;;;;;;;;;5073426;28;20023;-69
2024/01/19 07:08:55;;;;;;;;;;;;;;;;;;5077190;28;19924;-69
2024/01/19 07:11:21;;;;;;;;;;;;;;;;;;5074373;28;20200;-71
2024/01/19 07:13:49;;;;;;;;;;;;;;;;;;5077305;28;19924;-69
2024/01/19 07:16:15;;;;;;;;;;;;;;;;;;5072285;28;20416;-70
2024/01/19 07:18:43;;;;;;;;;;;;;;;;;;5073756;28;20405;-70
2024/01/19 07:21:10;;;;;;;;;;;;;;;;;;5081465;28;19964;-69
2024/01/19 07:23:36;;;;;;;;;;;;;;;;;;5079863;28;20345;-71
2024/01/19 07:26:03;;;;;;;;;;;;;;;;;;5079435;28;19928;-71
2024/01/19 07:28:29;;;;;;;;;;;;;;;;;;5080513;28;19924;-69
2024/01/19 07:30:55;;;;;;;;;;;;;;;;;;5079040;28;19928;-69
2024/01/19 07:33:22;;;;;;;;;;;;;;;;;;5080855;28;19932;-71
2024/01/19 07:35:54;;;;;;;;;;;;;;;;;;5079981;28;19963;-69
2024/01/19 07:38:20;;;;;;;;;;;;;;;;;;5080107;28;19925;-69
2024/01/19 07:40:47;;;;;;;;;;;;;;;;;;5082180;28;20041;-71
2024/01/19 07:43:13;;;;;;;;;;;;;;;;;;5081907;28;20376;-70
2024/01/19 07:45:40;;;;;;;;;;;;;;;;;;5083284;28;20393;-69
2024/01/19 07:48:06;;;;;;;;;;;;;;;;;;5080199;28;19932;-71
2024/01/19 07:50:33;;;;;;;;;;;;;;;;;;5075759;28;19924;-68
2024/01/19 07:52:59;;;;;;;;;;;;;;;;;;5067441;28;19928;-69
2024/01/19 07:55:25;;;;;;;;;;;;;;;;;;5078514;28;20288;-71
2024/01/19 07:57:52;;;;;;;;;;;;;;;;;;5066808;28;19940;-69
2024/01/19 08:00:18;;;;;;;;;;;;;;;;;;5076610;28;19931;-71
2024/01/19 08:02:45;;;;;;;;;;;;;;;;;;5069054;28;19932;-69
2024/01/19 08:05:11;;;;;;;;;;;;;;;;;;5074255;28;19934;-70
2024/01/19 08:07:40;;;;;;;;;;;;;;;;;;5070285;28;20301;-69
2024/01/19 08:10:06;;;;;;;;;;;;;;;;;;5072878;28;19931;-70
2024/01/19 08:12:33;;;;;;;;;;;;;;;;;;5072818;28;19932;-70
2024/01/19 08:14:59;;;;;;;;;;;;;;;;;;5073220;28;20685;-70
2024/01/19 08:17:25;;;;;;;;;;;;;;;;;;5077005;28;20419;-71
2024/01/19 08:19:52;;;;;;;;;;;;;;;;;;5075231;28;19929;-70
2024/01/19 08:22:18;;;;;;;;;;;;;;;;;;5078176;28;19929;-69
2024/01/19 08:24:45;;;;;;;;;;;;;;;;;;5075481;28;19924;-69
2024/01/19 08:27:11;;;;;;;;;;;;;;;;;;5078088;28;20020;-70
2024/01/19 08:29:37;;;;;;;;;;;;;;;;;;5074990;28;20460;-70
2024/01/19 08:32:04;;;;;;;;;;;;;;;;;;5079826;28;20027;-70
2024/01/19 08:34:30;;;;;;;;;;;;;;;;;;5071771;28;20309;-68
2024/01/19 08:36:57;;;;;;;;;;;;;;;;;;5081408;28;19982;-70
2024/01/19 08:39:23;;;;;;;;;;;;;;;;;;5073121;28;19929;-70
2024/01/19 08:41:49;;;;;;;;;;;;;;;;;;5079470;28;19924;-70
2024/01/19 08:44:16;;;;;;;;;;;;;;;;;;5074571;28;19932;-69
2024/01/19 08:46:43;;;;;;;;;;;;;;;;;;5075889;28;19931;-71
2024/01/19 08:49:09;;;;;;;;;;;;;;;;;;5075105;28;20401;-69
2024/01/19 08:51:35;;;;;;;;;;;;;;;;;;5074274;28;19924;-69
2024/01/19 08:54:02;;;;;;;;;;;;;;;;;;5079778;28;20278;-71
2024/01/19 08:56:29;;;;;;;;;;;;;;;;;;5076928;28;20025;-72
2024/01/19 08:58:57;;;;;;;;;;;;;;;;;;5079557;28;19924;-70
2024/01/19 09:01:23;;;;;;;;;;;;;;;;;;5079838;28;20455;-69
2024/01/19 09:03:49;;;;;;;;;;;;;;;;;;5075870;28;19928;-70
2024/01/19 09:06:16;;;;;;;;;;;;;;;;;;5077471;28;20015;-71
2024/01/19 09:08:43;;;;;;;;;;;;;;;;;;5080273;28;19924;-71
2024/01/19 09:11:10;;;;;;;;;;;;;;;;;;5077071;28;19951;-71
2024/01/19 09:13:37;;;;;;;;;;;;;;;;;;5080910;28;20011;-71
2024/01/19 09:16:04;;;;;;;;;;;;;;;;;;5081779;28;20448;-72
2024/01/19 09:18:30;;;;;;;;;;;;;;;;;;5084876;28;19954;-71
2024/01/19 09:20:57;;;;;;;;;;;;;;;;;;5080112;28;20369;-70
2024/01/19 09:23:23;;;;;;;;;;;;;;;;;;5083949;28;19924;-72
2024/01/19 09:25:50;;;;;;;;;;;;;;;;;;5082551;28;19928;-70
2024/01/19 09:28:17;;;;;;;;;;;;;;;;;;5079020;28;19927;-69
2024/01/19 09:30:43;;;;;;;;;;;;;;;;;;5082432;28;20261;-70
2024/01/19 09:33:09;;;;;;;;;;;;;;;;;;5082714;28;19946;-71
2024/01/19 09:35:37;;;;;;;;;;;;;;;;;;5079105;28;19928;-70
2024/01/19 09:38:03;;;;;;;;;;;;;;;;;;5080483;28;19943;-71
2024/01/19 09:40:29;;;;;;;;;;;;;;;;;;5072117;28;19935;-72
2024/01/19 09:42:56;;;;;;;;;;;;;;;;;;5073888;28;20264;-71
2024/01/19 09:45:22;;;;;;;;;;;;;;;;;;5078629;28;19982;-72
2024/01/19 09:47:48;;;;;;;;;;;;;;;;;;5068582;28;19947;-71
2024/01/19 09:50:15;;;;;;;;;;;;;;;;;;5078024;28;20430;-70
2024/01/19 09:52:42;;;;;;;;;;;;;;;;;;5069730;28;19933;-69
2024/01/19 09:55:09;;;;;;;;;;;;;;;;;;5079543;28;20023;-70
2024/01/19 09:57:35;;;;;;;;;;;;;;;;;;5067568;28;19925;-69
2024/01/19 10:00:02;;;;;;;;;;;;;;;;;;5078708;28;20396;-69
2024/01/19 10:02:37;;;;;;;;;;;;;;;;;;5071498;28;19932;-72
2024/01/19 10:05:03;;;;;;;;;;;;;;;;;;5075855;28;19928;-69
2024/01/19 10:07:30;;;;;;;;;;;;;;;;;;5070435;28;19931;-69
2024/01/19 10:09:56;;;;;;;;;;;;;;;;;;5078772;28;19996;-69
2024/01/19 10:12:22;;;;;;;;;;;;;;;;;;5076198;28;19928;-71
2024/01/19 10:14:49;;;;;;;;;;;;;;;;;;5073264;28;19931;-70
2024/01/19 10:17:15;;;;;;;;;;;;;;;;;;5078566;28;20024;-70
2024/01/19 10:19:41;;;;;;;;;;;;;;;;;;5073287;28;19933;-70
2024/01/19 10:22:08;;;;;;;;;;;;;;;;;;5078436;28;20359;-70
2024/01/19 10:24:34;;;;;;;;;;;;;;;;;;5071267;28;19932;-70
2024/01/19 10:27:00;;;;;;;;;;;;;;;;;;5080335;28;20031;-70
2024/01/19 10:29:27;;;;;;;;;;;;;;;;;;5073689;28;19974;-71
2024/01/19 10:31:53;;;;;;;;;;;;;;;;;;5077937;28;19931;-73
2024/01/19 10:34:20;;;;;;;;;;;;;;;;;;5072824;28;20288;-72
2024/01/19 10:36:46;;;;;;;;;;;;;;;;;;5075947;28;20015;-71
2024/01/19 10:39:12;;;;;;;;;;;;;;;;;;5075827;28;20344;-71
2024/01/19 10:41:39;;;;;;;;;;;;;;;;;;5075457;28;19990;-71
2024/01/19 10:44:05;;;;;;;;;;;;;;;;;;5076041;28;20407;-70
2024/01/19 10:46:32;;;;;;;;;;;;;;;;;;5069478;28;19933;-70
2024/01/19 10:48:58;;;;;;;;;;;;;;;;;;5076338;28;19928;-70
2024/01/19 10:51:28;;;;;;;;;;;;;;;;;;5076635;28;19997;-71
2024/01/19 10:53:55;;;;;;;;;;;;;;;;;;5077665;28;20429;-70
2024/01/19 10:56:21;;;;;;;;;;;;;;;;;;5077694;28;19928;-70
2024/01/19 10:58:47;;;;;;;;;;;;;;;;;;5077470;28;20336;-72
2024/01/19 11:01:14;;;;;;;;;;;;;;;;;;5075922;28;19924;-71
2024/01/19 11:03:42;;;;;;;;;;;;;;;;;;5075155;28;19928;-72
2024/01/19 11:06:08;;;;;;;;;;;;;;;;;;5079353;28;19924;-71
2024/01/19 11:08:35;;;;;;;;;;;;;;;;;;5079281;28;19940;-71
2024/01/19 11:11:01;;;;;;;;;;;;;;;;;;5074484;28;19940;-71
2024/01/19 11:13:28;;;;;;;;;;;;;;;;;;5080017;28;19928;-70
2024/01/19 11:15:54;;;;;;;;;;;;;;;;;;5053713;28;19935;-72
2024/01/19 11:18:21;;;;;;;;;;;;;;;;;;5080613;28;20456;-71
2024/01/19 11:20:48;;;;;;;;;;;;;;;;;;5082873;28;19932;-71
2024/01/19 11:23:14;;;;;;;;;;;;;;;;;;5081625;28;20377;-71
2024/01/19 11:25:40;;;;;;;;;;;;;;;;;;5081500;28;19928;-72
2024/01/19 11:28:07;;;;;;;;;;;;;;;;;;5074151;28;19924;-72
2024/01/19 11:30:33;;;;;;;;;;;;;;;;;;5070962;28;19924;-72
2024/01/19 11:33:00;;;;;;;;;;;;;;;;;;5072113;28;19928;-72
2024/01/19 11:35:26;;;;;;;;;;;;;;;;;;5071004;28;19924;-70
2024/01/19 11:37:53;;;;;;;;;;;;;;;;;;5071632;28;20023;-71
2024/01/19 11:40:19;;;;;;;;;;;;;;;;;;5074433;28;19939;-72
2024/01/19 11:42:45;;;;;;;;;;;;;;;;;;5071337;28;20274;-71
2024/01/19 11:45:12;;;;;;;;;;;;;;;;;;5080680;28;19935;-71
2024/01/19 11:47:39;;;;;;;;;;;;;;;;;;5067649;28;20320;-71
2024/01/19 11:50:05;;;;;;;;;;;;;;;;;;5077862;28;19931;-73
2024/01/19 11:52:35;;;;;;;;;;;;;;;;;;5070563;28;19933;-71
2024/01/19 11:55:01;;;;;;;;;;;;;;;;;;5079402;28;19939;-71
2024/01/19 11:57:28;;;;;;;;;;;;;;;;;;5072631;28;19924;-71
2024/01/19 11:59:54;;;;;;;;;;;;;;;;;;5078098;28;19925;-73
2024/01/19 12:02:21;;;;;;;;;;;;;;;;;;5074713;28;19924;-72
2024/01/19 12:04:47;;;;;;;;;;;;;;;;;;5079782;28;19960;-72
2024/01/19 12:07:13;;;;;;;;;;;;;;;;;;5078594;28;20027;-73
2024/01/19 12:09:40;;;;;;;;;;;;;;;;;;5077532;28;19928;-74
2024/01/19 12:12:06;;;;;;;;;;;;;;;;;;5078911;28;20029;-73
2024/01/19 12:14:32;;;;;;;;;;;;;;;;;;5076564;28;19924;-73
2024/01/19 12:16:59;;;;;;;;;;;;;;;;;;5077388;28;19978;-72
2024/01/19 12:19:25;;;;;;;;;;;;;;;;;;5073992;28;20376;-73
2024/01/19 12:21:52;;;;;;;;;;;;;;;;;;5079004;28;20328;-73
2024/01/19 12:24:18;;;;;;;;;;;;;;;;;;5075140;28;19938;-73
2024/01/19 12:26:45;;;;;;;;;;;;;;;;;;5080042;28;20392;-73
2024/01/19 12:29:11;;;;;;;;;;;;;;;;;;5077055;28;19995;-73
2024/01/19 12:31:37;;;;;;;;;;;;;;;;;;5080157;28;19932;-72
2024/01/19 12:34:04;;;;;;;;;;;;;;;;;;5078503;28;20453;-74
2024/01/19 12:36:30;;;;;;;;;;;;;;;;;;5078707;28;19931;-73
2024/01/19 12:38:57;;;;;;;;;;;;;;;;;;5079540;28;19929;-73
2024/01/19 12:41:23;;;;;;;;;;;;;;;;;;5078430;28;19928;-72
2024/01/19 12:43:49;;;;;;;;;;;;;;;;;;5080029;28;20034;-72
2024/01/19 12:46:17;;;;;;;;;;;;;;;;;;5078645;28;19947;-74
2024/01/19 12:48:43;;;;;;;;;;;;;;;;;;5080048;28;20044;-72
2024/01/19 12:51:10;;;;;;;;;;;;;;;;;;5079867;28;19924;-72
2024/01/19 12:53:36;;;;;;;;;;;;;;;;;;5080414;28;19928;-73
2024/01/19 12:56:03;;;;;;;;;;;;;;;;;;5079581;28;19936;-72
2024/01/19 12:58:29;;;;;;;;;;;;;;;;;;5082746;28;19970;-73
2024/01/19 13:00:55;;;;;;;;;;;;;;;;;;5081103;28;19924;-73
2024/01/19 13:03:22;;;;;;;;;;;;;;;;;;5076908;28;19924;-73
2024/01/19 13:05:48;;;;;;;;;;;;;;;;;;5079836;28;19924;-72
2024/01/19 13:08:14;;;;;;;;;;;;;;;;;;5075370;28;20015;-74
2024/01/19 13:10:42;;;;;;;;;;;;;;;;;;5080018;28;19928;-72
2024/01/19 13:13:09;;;;;;;;;;;;;;;;;;5086541;28;19963;-72
2024/01/19 13:15:35;;;;;;;;;;;;;;;;;;5074913;28;19925;-73
2024/01/19 13:18:01;;;;;;;;;;;;;;;;;;5078630;28;19928;-73
2024/01/19 13:20:28;;;;;;;;;;;;;;;;;;5078399;28;19925;-73
2024/01/19 13:22:55;;;;;;;;;;;;;;;;;;5078674;28;20309;-73
2024/01/19 13:25:21;;;;;;;;;;;;;;;;;;5077352;28;20409;-72
2024/01/19 13:27:47;;;;;;;;;;;;;;;;;;5076170;28;19935;-72
2024/01/19 13:30:14;;;;;;;;;;;;;;;;;;5078874;28;19931;-72
2024/01/19 13:32:40;;;;;;;;;;;;;;;;;;5072960;28;19963;-74
2024/01/19 13:35:07;;;;;;;;;;;;;;;;;;5080609;28;19928;-74
2024/01/19 13:37:33;;;;;;;;;;;;;;;;;;5071304;28;19928;-72
2024/01/19 13:40:04;;;;;;;;;;;;;;;;;;5079276;28;20388;-73
2024/01/19 13:42:31;;;;;;;;;;;;;;;;;;5075526;28;19962;-73
2024/01/19 13:44:58;;;;;;;;;;;;;;;;;;5078224;28;19925;-75
2024/01/19 13:47:24;;;;;;;;;;;;;;;;;;5070713;28;19928;-74
2024/01/19 13:49:51;;;;;;;;;;;;;;;;;;5080399;28;19928;-73
2024/01/19 13:52:17;;;;;;;;;;;;;;;;;;5071793;28;19925;-73
2024/01/19 13:54:44;;;;;;;;;;;;;;;;;;5075249;28;20407;-73
2024/01/19 13:57:10;;;;;;;;;;;;;;;;;;5073653;28;19924;-73
2024/01/19 13:59:36;;;;;;;;;;;;;;;;;;5075866;28;19938;-73
2024/01/19 14:02:03;;;;;;;;;;;;;;;;;;5075257;28;19951;-72
2024/01/19 14:04:30;;;;;;;;;;;;;;;;;;5074785;28;20027;-73
2024/01/19 14:06:57;;;;;;;;;;;;;;;;;;5075746;28;19931;-75
2024/01/19 14:09:23;;;;;;;;;;;;;;;;;;5072894;28;19934;-74
2024/01/19 14:11:50;;;;;;;;;;;;;;;;;;5077279;28;19924;-74
2024/01/19 14:14:17;;;;;;;;;;;;;;;;;;5072695;28;19931;-74
2024/01/19 14:16:43;;;;;;;;;;;;;;;;;;5077899;28;19936;-73
2024/01/19 14:19:09;;;;;;;;;;;;;;;;;;5072547;28;20290;-76
2024/01/19 14:21:36;;;;;;;;;;;;;;;;;;5079973;28;20260;-72
2024/01/19 14:24:02;;;;;;;;;;;;;;;;;;5074913;28;20369;-74
2024/01/19 14:26:29;;;;;;;;;;;;;;;;;;5076001;28;19931;-74
2024/01/19 14:28:55;;;;;;;;;;;;;;;;;;5078610;28;19925;-74
2024/01/19 14:31:22;;;;;;;;;;;;;;;;;;5077115;28;19990;-74
2024/01/19 14:33:48;;;;;;;;;;;;;;;;;;5079336;28;19924;-74
2024/01/19 14:36:15;;;;;;;;;;;;;;;;;;5077315;28;20324;-74
2024/01/19 14:38:41;;;;;;;;;;;;;;;;;;5077503;28;19967;-73
2024/01/19 14:41:08;;;;;;;;;;;;;;;;;;5078498;28;19960;-74
2024/01/19 14:43:34;;;;;;;;;;;;;;;;;;5077220;28;19967;-76
2024/01/19 14:46:00;;;;;;;;;;;;;;;;;;5078218;28;20300;-74
2024/01/19 14:48:27;;;;;;;;;;;;;;;;;;5078979;28;20397;-75
2024/01/19 14:50:53;;;;;;;;;;;;;;;;;;5081679;28;20020;-76
2024/01/19 14:53:20;;;;;;;;;;;;;;;;;;5081320;28;19967;-75
2024/01/19 14:55:46;;;;;;;;;;;;;;;;;;5080147;28;20380;-73
2024/01/19 14:58:13;;;;;;;;;;;;;;;;;;5081508;28;19928;-75
2024/01/19 15:00:39;;;;;;;;;;;;;;;;;;5065326;28;19925;-75
2024/01/19 15:03:06;;;;;;;;;;;;;;;;;;5073472;28;19932;-74
2024/01/19 15:05:32;;;;;;;;;;;;;;;;;;5070352;28;20026;-76
2024/01/19 15:07:58;;;;;;;;;;;;;;;;;;5079144;28;19932;-74
2024/01/19 15:10:28;;;;;;;;;;;;;;;;;;5068775;28;19935;-73
2024/01/19 15:12:55;;;;;;;;;;;;;;;;;;5084408;28;19924;-73
2024/01/19 15:15:21;;;;;;;;;;;;;;;;;;5070780;28;19942;-74
2024/01/19 15:17:47;;;;;;;;;;;;;;;;;;5082331;28;19955;-74
2024/01/19 15:20:14;;;;;;;;;;;;;;;;;;5071492;28;19937;-73
2024/01/19 15:22:40;;;;;;;;;;;;;;;;;;5063762;28;19960;-76
2024/01/19 15:25:07;;;;;;;;;;;;;;;;;;5072737;28;20450;-73
2024/01/19 15:27:33;;;;;;;;;;;;;;;;;;5074718;28;19933;-74
2024/01/19 15:29:59;;;;;;;;;;;;;;;;;;5069980;28;19924;-73
2024/01/19 15:32:26;;;;;;;;;;;;;;;;;;5073524;28;19924;-73
2024/01/19 15:34:52;;;;;;;;;;;;;;;;;;5076460;28;20027;-73
2024/01/19 15:37:19;;;;;;;;;;;;;;;;;;5060787;28;20367;-72
2024/01/19 15:39:45;;;;;;;;;;;;;;;;;;5074682;28;19987;-72
2024/01/19 15:42:11;;;;;;;;;;;;;;;;;;5070175;28;20424;-73
2024/01/19 15:44:38;;;;;;;;;;;;;;;;;;5077818;28;19928;-73
2024/01/19 15:47:04;;;;;;;;;;;;;;;;;;5071291;28;19934;-74
2024/01/19 15:49:30;;;;;;;;;;;;;;;;;;5076776;28;19963;-73
2024/01/19 15:51:57;;;;;;;;;;;;;;;;;;5071934;28;19924;-72
2024/01/19 15:54:23;;;;;;;;;;;;;;;;;;5077815;28;19990;-73
2024/01/19 15:56:50;;;;;;;;;;;;;;;;;;5075943;28;20027;-73
2024/01/19 15:59:16;;;;;;;;;;;;;;;;;;5072423;28;19924;-73
2024/01/19 16:01:43;;;;;;;;;;;;;;;;;;5076126;28;19925;-74
2024/01/19 16:04:09;;;;;;;;;;;;;;;;;;5076197;28;19929;-73
2024/01/19 16:06:36;;;;;;;;;;;;;;;;;;5074713;28;19971;-74
2024/01/19 16:09:02;;;;;;;;;;;;;;;;;;5076184;28;20291;-72
2024/01/19 16:11:30;;;;;;;;;;;;;;;;;;5074802;28;19928;-72
2024/01/19 16:13:56;;;;;;;;;;;;;;;;;;5076583;28;20015;-72
2024/01/19 16:16:23;;;;;;;;;;;;;;;;;;5077394;28;19931;-74
2024/01/19 16:18:49;;;;;;;;;;;;;;;;;;5057774;28;19955;-74
2024/01/19 16:21:18;;;;;;;;;;;;;;;;;;5071847;28;20005;-74
2024/01/19 16:23:45;;;;;;;;;;;;;;;;;;5075795;28;19928;-73
2024/01/19 16:26:11;;;;;;;;;;;;;;;;;;5077609;28;19924;-74
2024/01/19 16:28:37;;;;;;;;;;;;;;;;;;5058353;28;19963;-72
2024/01/19 16:31:04;;;;;;;;;;;;;;;;;;5079178;28;19932;-73
2024/01/19 16:33:31;;;;;;;;;;;;;;;;;;5079500;28;20392;-73
2024/01/19 16:35:57;;;;;;;;;;;;;;;;;;5061460;28;20261;-72
2024/01/19 16:38:28;;;;;;;;;;;;;;;;;;5078739;28;20384;-72
2024/01/19 16:40:55;;;;;;;;;;;;;;;;;;5080089;28;19929;-72